createdAt,value
2022-11-05T00:00:38.423Z,7.50
2022-11-05T00:03:28.819Z,7.50
2022-11-05T00:06:15.454Z,7.50
2022-11-05T00:09:01.836Z,7.40
2022-11-05T00:11:48.585Z,7.50
2022-11-05T00:14:34.550Z,7.50
2022-11-05T00:17:02.571Z,7.40
2022-11-05T00:19:30.301Z,7.50
2022-11-05T00:22:18.643Z,7.50
2022-11-05T00:25:04.984Z,7.50
2022-11-05T00:27:34.321Z,7.50
2022-11-05T00:30:07.112Z,7.50
2022-11-05T00:32:38.033Z,7.50
2022-11-05T00:35:07.987Z,7.60
2022-11-05T00:37:36.449Z,7.50
2022-11-05T00:40:05.172Z,7.50
2022-11-05T00:42:52.290Z,7.50
2022-11-05T00:45:20.471Z,7.50
2022-11-05T00:48:07.951Z,7.50
2022-11-05T00:50:35.746Z,7.50
2022-11-05T00:53:04.383Z,7.50
2022-11-05T00:55:34.043Z,7.50
2022-11-05T00:58:03.450Z,7.50
2022-11-05T01:00:33.280Z,7.50
2022-11-05T01:03:03.616Z,7.50
2022-11-05T01:05:33.108Z,7.50
2022-11-05T01:08:01.172Z,7.50
2022-11-05T01:10:29.589Z,7.50
2022-11-05T01:12:57.594Z,7.60
2022-11-05T01:15:25.593Z,7.50
2022-11-05T01:17:53.306Z,7.60
2022-11-05T01:20:21.406Z,7.60
2022-11-05T01:22:49.202Z,7.60
2022-11-05T01:25:17.329Z,7.50
2022-11-05T01:27:45.309Z,7.60
2022-11-05T01:30:14.004Z,7.50
2022-11-05T01:32:41.878Z,7.60
2022-11-05T01:35:13.417Z,7.50
2022-11-05T01:37:41.274Z,7.50
2022-11-05T01:40:16.138Z,7.50
2022-11-05T01:42:43.987Z,7.40
2022-11-05T01:45:25.432Z,7.40
2022-11-05T01:48:04.898Z,7.40
2022-11-05T01:50:39.540Z,7.40
2022-11-05T01:53:20.272Z,7.30
2022-11-05T01:56:00.911Z,7.30
2022-11-05T01:58:40.538Z,7.30
2022-11-05T02:01:08.613Z,7.30
2022-11-05T02:03:36.540Z,7.30
2022-11-05T02:06:05.147Z,7.30
2022-11-05T02:08:49.930Z,7.30
2022-11-05T02:11:20.013Z,7.30
2022-11-05T02:13:49.397Z,7.30
2022-11-05T02:16:48.873Z,7.30
2022-11-05T02:19:34.996Z,7.30
2022-11-05T02:22:08.840Z,7.30
2022-11-05T02:24:46.416Z,7.30
2022-11-05T02:27:29.987Z,7.30
2022-11-05T02:30:38.912Z,7.30
2022-11-05T02:33:28.745Z,7.30
2022-11-05T02:36:19.328Z,7.20
2022-11-05T02:38:59.992Z,7.20
2022-11-05T02:41:43.712Z,7.20
2022-11-05T02:44:14.429Z,7.20
2022-11-05T02:46:53.763Z,7.20
2022-11-05T02:49:43.995Z,7.20
2022-11-05T02:52:33.077Z,7.20
2022-11-05T02:55:11.656Z,7.20
2022-11-05T02:57:45.865Z,7.10
2022-11-05T03:00:39.401Z,7.10
2022-11-05T03:03:35.811Z,7.10
2022-11-05T03:06:27.806Z,7.00
2022-11-05T03:08:55.440Z,7.00
2022-11-05T03:11:27.316Z,7.00
2022-11-05T03:14:00.162Z,6.90
2022-11-05T03:16:41.887Z,6.90
2022-11-05T03:19:14.008Z,6.90
2022-11-05T03:21:42.228Z,7.00
2022-11-05T03:24:19.400Z,6.90
2022-11-05T03:26:59.462Z,6.90
2022-11-05T03:29:33.766Z,6.90
2022-11-05T03:32:05.046Z,6.80
2022-11-05T03:34:37.683Z,6.80
2022-11-05T03:37:08.325Z,6.80
2022-11-05T03:39:50.936Z,6.80
2022-11-05T03:42:24.040Z,6.80
2022-11-05T03:44:55.825Z,6.70
2022-11-05T03:47:30.201Z,6.60
2022-11-05T03:50:14.406Z,6.60
2022-11-05T03:52:59.360Z,6.60
2022-11-05T03:55:35.720Z,6.60
2022-11-05T03:58:05.412Z,6.60
2022-11-05T04:00:33.724Z,6.60
2022-11-05T04:03:01.854Z,6.50
2022-11-05T04:05:29.703Z,6.50
2022-11-05T04:08:16.060Z,6.50
2022-11-05T04:11:02.320Z,6.50
2022-11-05T04:13:30.395Z,6.60
2022-11-05T04:16:16.711Z,6.60
2022-11-05T04:18:44.799Z,6.60
2022-11-05T04:21:31.398Z,6.60
2022-11-05T04:24:09.169Z,6.50
2022-11-05T04:26:43.852Z,6.60
2022-11-05T04:29:30.860Z,6.60
2022-11-05T04:32:00.122Z,6.70
2022-11-05T04:34:30.833Z,6.70
2022-11-05T04:36:58.615Z,6.70
2022-11-05T04:39:26.863Z,6.70
2022-11-05T04:41:54.558Z,6.70
2022-11-05T04:44:22.629Z,6.70
2022-11-05T04:46:50.562Z,6.70
2022-11-05T04:49:18.637Z,6.70
2022-11-05T04:51:46.301Z,6.70
2022-11-05T04:54:14.345Z,6.70
2022-11-05T04:56:44.534Z,6.70
2022-11-05T04:59:12.642Z,6.70
2022-11-05T05:01:40.771Z,6.70
2022-11-05T05:04:09.090Z,6.70
2022-11-05T05:06:38.588Z,6.70
2022-11-05T05:09:08.746Z,6.80
2022-11-05T05:11:36.819Z,6.80
2022-11-05T05:14:05.160Z,6.80
2022-11-05T05:16:32.925Z,6.70
2022-11-05T05:19:02.502Z,6.80
2022-11-05T05:21:39.573Z,6.70
2022-11-05T05:24:19.288Z,6.80
2022-11-05T05:26:51.223Z,6.80
2022-11-05T05:29:19.529Z,6.80
2022-11-05T05:31:47.235Z,6.80
2022-11-05T05:34:17.646Z,6.80
2022-11-05T05:36:45.394Z,6.80
2022-11-05T05:39:13.836Z,6.80
2022-11-05T05:41:41.635Z,6.80
2022-11-05T05:44:09.879Z,6.80
2022-11-05T05:46:37.704Z,6.80
2022-11-05T05:49:12.059Z,6.90
2022-11-05T05:51:40.857Z,6.80
2022-11-05T05:54:10.676Z,6.90
2022-11-05T05:56:38.597Z,6.90
2022-11-05T05:59:06.897Z,6.90
2022-11-05T06:01:34.982Z,6.90
2022-11-05T06:04:03.619Z,6.90
2022-11-05T06:06:31.437Z,6.90
2022-11-05T06:08:59.635Z,6.90
2022-11-05T06:11:27.634Z,7.00
2022-11-05T06:13:56.130Z,7.00
2022-11-05T06:16:23.886Z,7.00
2022-11-05T06:18:52.191Z,7.00
2022-11-05T06:21:20.076Z,7.10
2022-11-05T06:23:49.327Z,7.10
2022-11-05T06:26:18.856Z,7.10
2022-11-05T06:28:46.953Z,7.20
2022-11-05T06:31:15.361Z,7.20
2022-11-05T06:33:43.487Z,7.20
2022-11-05T06:36:15.874Z,7.30
2022-11-05T06:38:47.632Z,7.30
2022-11-05T06:41:15.686Z,7.30
2022-11-05T06:43:43.823Z,7.30
2022-11-05T06:46:12.168Z,7.30
2022-11-05T06:48:40.515Z,7.30
2022-11-05T06:51:09.603Z,7.40
2022-11-05T06:53:38.075Z,7.40
2022-11-05T06:56:07.579Z,7.40
2022-11-05T06:58:35.648Z,7.50
2022-11-05T07:01:06.243Z,7.50
2022-11-05T07:03:35.176Z,7.50
2022-11-05T07:06:06.395Z,7.50
2022-11-05T07:08:36.992Z,7.60
2022-11-05T07:11:05.240Z,7.60
2022-11-05T07:13:33.334Z,7.60
2022-11-05T07:16:01.160Z,7.70
2022-11-05T07:18:29.317Z,7.70
2022-11-05T07:20:57.109Z,7.70
2022-11-05T07:23:25.425Z,7.70
2022-11-05T07:25:53.586Z,7.70
2022-11-05T07:28:24.387Z,7.70
2022-11-05T07:30:52.246Z,7.70
2022-11-05T07:33:20.351Z,7.80
2022-11-05T07:35:48.064Z,7.80
2022-11-05T07:38:17.170Z,7.90
2022-11-05T07:40:44.910Z,7.90
2022-11-05T07:43:13.264Z,7.80
2022-11-05T07:45:41.179Z,7.90
2022-11-05T07:48:10.216Z,7.90
2022-11-05T07:50:38.382Z,7.90
2022-11-05T07:53:14.058Z,7.90
2022-11-05T07:55:43.707Z,7.90
2022-11-05T07:58:12.455Z,7.90
2022-11-05T08:00:40.411Z,8.00
2022-11-05T08:03:17.303Z,8.00
2022-11-05T08:05:47.874Z,8.00
2022-11-05T08:08:18.222Z,8.00
2022-11-05T08:10:46.595Z,8.00
2022-11-05T08:13:18.123Z,8.00
2022-11-05T08:15:45.982Z,8.00
2022-11-05T08:18:18.194Z,8.00
2022-11-05T08:20:47.102Z,8.00
2022-11-05T08:23:15.922Z,8.00
2022-11-05T08:25:43.883Z,8.00
2022-11-05T08:28:13.149Z,8.00
2022-11-05T08:30:41.680Z,8.10
2022-11-05T08:33:13.371Z,8.10
2022-11-05T08:35:41.221Z,8.10
2022-11-05T08:38:13.937Z,8.20
2022-11-05T08:40:43.247Z,8.20
2022-11-05T08:43:13.948Z,8.20
2022-11-05T08:45:42.901Z,8.20
2022-11-05T08:48:15.160Z,8.30
2022-11-05T08:50:43.976Z,8.30
2022-11-05T08:53:12.746Z,8.40
2022-11-05T08:55:41.143Z,8.40
2022-11-05T08:58:15.515Z,8.50
2022-11-05T09:00:48.525Z,8.50
2022-11-05T09:03:17.464Z,8.60
2022-11-05T09:05:45.299Z,8.60
2022-11-05T09:08:15.857Z,8.60
2022-11-05T09:10:45.180Z,8.60
2022-11-05T09:13:19.263Z,8.60
2022-11-05T09:15:49.383Z,8.70
2022-11-05T09:18:18.983Z,8.60
2022-11-05T09:20:47.492Z,8.70
2022-11-05T09:23:19.679Z,8.60
2022-11-05T09:25:48.201Z,8.60
2022-11-05T09:28:19.159Z,8.70
2022-11-05T09:30:49.273Z,8.70
2022-11-05T09:33:19.984Z,8.60
2022-11-05T09:35:48.653Z,8.70
2022-11-05T09:38:16.810Z,8.70
2022-11-05T09:40:47.557Z,8.70
2022-11-05T09:43:28.820Z,8.70
2022-11-05T09:46:04.218Z,8.70
2022-11-05T09:48:38.325Z,8.70
2022-11-05T09:51:06.993Z,8.80
2022-11-05T09:53:40.989Z,8.80
2022-11-05T09:56:27.215Z,8.80
2022-11-05T09:58:59.506Z,8.80
2022-11-05T10:01:34.916Z,8.80
2022-11-05T10:04:08.946Z,8.80
2022-11-05T10:06:44.598Z,8.80
2022-11-05T10:09:20.767Z,8.80
2022-11-05T10:11:54.456Z,8.80
2022-11-05T10:14:31.589Z,8.80
2022-11-05T10:17:06.497Z,8.80
2022-11-05T10:19:50.002Z,8.70
2022-11-05T10:22:19.855Z,8.70
2022-11-05T10:24:50.099Z,8.70
2022-11-05T10:27:23.583Z,8.60
2022-11-05T10:29:52.769Z,8.60
2022-11-05T10:32:41.312Z,8.70
2022-11-05T10:35:14.837Z,8.60
2022-11-05T10:37:42.976Z,8.60
2022-11-05T10:40:40.449Z,8.60
2022-11-05T10:43:20.005Z,8.60
2022-11-05T10:46:04.576Z,8.70
2022-11-05T10:49:07.752Z,8.60
2022-11-05T10:51:39.228Z,8.70
2022-11-05T10:54:21.900Z,8.70
2022-11-05T10:56:50.245Z,8.70
2022-11-05T10:59:27.416Z,8.70
2022-11-05T11:02:23.903Z,8.70
2022-11-05T11:04:58.599Z,8.70
2022-11-05T11:07:27.649Z,8.70
2022-11-05T11:09:55.673Z,8.60
2022-11-05T11:12:40.667Z,8.70
2022-11-05T11:15:08.776Z,8.70
2022-11-05T11:17:36.885Z,8.60
2022-11-05T11:20:30.228Z,8.60
2022-11-05T11:23:10.140Z,8.60
2022-11-05T11:26:01.966Z,8.70
2022-11-05T11:28:50.304Z,8.60
2022-11-05T11:31:23.201Z,8.60
2022-11-05T11:33:58.649Z,8.70
2022-11-05T11:36:36.017Z,8.70
2022-11-05T11:39:06.759Z,8.60
2022-11-05T11:41:38.706Z,8.60
2022-11-05T11:44:17.522Z,8.60
2022-11-05T11:46:51.336Z,8.50
2022-11-05T11:49:46.836Z,8.60
2022-11-05T11:52:16.708Z,8.60
2022-11-05T11:54:45.345Z,8.60
2022-11-05T11:57:26.603Z,8.60
2022-11-05T12:00:11.800Z,8.60
2022-11-05T12:03:02.146Z,8.60
2022-11-05T12:05:50.814Z,8.60
2022-11-05T12:08:41.590Z,8.60
2022-11-05T12:11:23.856Z,8.60
2022-11-05T12:14:28.990Z,8.60
2022-11-05T12:17:17.237Z,8.60
2022-11-05T12:20:03.770Z,8.60
2022-11-05T12:23:04.610Z,8.50
2022-11-05T12:25:54.137Z,8.60
2022-11-05T12:29:04.540Z,8.50
2022-11-05T12:31:56.444Z,8.50
2022-11-05T12:34:42.657Z,8.50
2022-11-05T12:37:29.205Z,8.50
2022-11-05T12:40:09.033Z,8.50
2022-11-05T12:42:57.205Z,8.40
2022-11-05T12:45:57.839Z,8.40
2022-11-05T12:48:34.225Z,8.40
2022-11-05T12:51:25.954Z,8.40
2022-11-05T12:54:26.446Z,8.30
2022-11-05T12:56:58.993Z,8.30
2022-11-05T12:59:31.741Z,8.40
2022-11-05T13:02:24.140Z,8.40
2022-11-05T13:05:24.180Z,8.40
2022-11-05T13:08:16.214Z,8.40
2022-11-05T13:10:51.967Z,8.40
2022-11-05T13:13:31.358Z,8.40
2022-11-05T13:16:14.104Z,8.40
2022-11-05T13:18:52.767Z,8.40
2022-11-05T13:21:24.397Z,8.50
2022-11-05T13:24:05.415Z,8.50
2022-11-05T13:26:57.713Z,8.40
2022-11-05T13:29:34.432Z,8.50
2022-11-05T13:32:14.949Z,8.50
2022-11-05T13:34:43.740Z,8.50
2022-11-05T13:37:31.908Z,8.50
2022-11-05T13:40:06.783Z,8.50
2022-11-05T13:42:40.497Z,8.50
2022-11-05T13:45:29.893Z,8.50
2022-11-05T13:48:03.360Z,8.50
2022-11-05T13:51:08.687Z,8.50
2022-11-05T13:53:55.190Z,8.60
2022-11-05T13:56:44.881Z,8.60
2022-11-05T13:59:30.757Z,8.60
2022-11-05T14:02:02.802Z,8.60
2022-11-05T14:04:42.405Z,8.60
2022-11-05T14:07:23.506Z,8.70
2022-11-05T14:09:58.163Z,8.60
2022-11-05T14:12:30.901Z,8.60
2022-11-05T14:15:28.360Z,8.60
2022-11-05T14:18:03.714Z,8.60
2022-11-05T14:20:31.692Z,8.60
2022-11-05T14:23:18.013Z,8.70
2022-11-05T14:25:45.991Z,8.70
2022-11-05T14:28:37.980Z,8.70
2022-11-05T14:31:41.079Z,8.70
2022-11-05T14:34:11.885Z,8.70
2022-11-05T14:36:45.232Z,8.70
2022-11-05T14:39:27.889Z,8.70
2022-11-05T14:42:04.792Z,8.70
2022-11-05T14:44:35.621Z,8.70
2022-11-05T14:47:19.748Z,8.70
2022-11-05T14:49:59.958Z,8.70
2022-11-05T14:52:29.232Z,8.70
2022-11-05T14:54:59.131Z,8.70
2022-11-05T14:57:44.603Z,8.60
2022-11-05T15:00:36.753Z,8.60
2022-11-05T15:03:28.738Z,8.60
2022-11-05T15:06:27.095Z,8.60
2022-11-05T15:09:05.836Z,8.60
2022-11-05T15:11:43.801Z,8.60
2022-11-05T15:14:14.272Z,8.60
2022-11-05T15:16:50.032Z,8.60
2022-11-05T15:19:32.420Z,8.60
2022-11-05T15:22:05.795Z,8.60
2022-11-05T15:24:34.662Z,8.60
2022-11-05T15:27:08.761Z,8.60
2022-11-05T15:29:36.891Z,8.60
2022-11-05T15:32:05.813Z,8.60
2022-11-05T15:34:35.914Z,8.60
2022-11-05T15:37:12.973Z,8.70
2022-11-05T15:39:43.882Z,8.70
2022-11-05T15:42:23.487Z,8.70
2022-11-05T15:44:56.632Z,8.70
2022-11-05T15:47:36.690Z,8.70
2022-11-05T15:50:15.817Z,8.70
2022-11-05T15:52:54.049Z,8.70
2022-11-05T15:55:24.986Z,8.70
2022-11-05T15:57:57.588Z,8.70
2022-11-05T16:00:28.058Z,8.70
2022-11-05T16:02:58.125Z,8.70
2022-11-05T16:05:30.480Z,8.70
2022-11-05T16:08:00.133Z,8.70
2022-11-05T16:10:33.849Z,8.70
2022-11-05T16:13:33.323Z,8.70
2022-11-05T16:16:06.886Z,8.70
2022-11-05T16:18:40.059Z,8.70
2022-11-05T16:21:17.782Z,8.70
2022-11-05T16:23:54.698Z,8.70
2022-11-05T16:29:40.448Z,8.70
2022-11-05T16:32:31.085Z,8.70
2022-11-05T16:35:02.033Z,8.70
2022-11-05T16:37:37.950Z,8.70
2022-11-05T16:40:19.981Z,8.70
2022-11-05T16:42:48.777Z,8.70
2022-11-05T16:45:20.411Z,8.80
2022-11-05T16:47:48.670Z,8.70
2022-11-05T16:50:31.097Z,8.70
2022-11-05T16:52:58.923Z,8.70
2022-11-05T16:55:27.445Z,8.70
2022-11-05T16:57:55.989Z,8.80
2022-11-05T17:00:25.494Z,8.80
2022-11-05T17:02:54.265Z,8.80
2022-11-05T17:05:32.980Z,8.70
2022-11-05T17:08:01.920Z,8.80
2022-11-05T17:10:30.203Z,8.80
2022-11-05T17:12:57.989Z,8.80
2022-11-05T17:15:35.868Z,8.80
2022-11-05T17:18:05.367Z,8.70
2022-11-05T17:20:40.800Z,8.80
2022-11-05T17:23:15.915Z,8.80
2022-11-05T17:25:47.693Z,8.70
2022-11-05T17:28:16.873Z,8.70
2022-11-05T17:30:51.981Z,8.80
2022-11-05T17:33:23.711Z,8.80
2022-11-05T17:35:52.345Z,8.80
2022-11-05T17:38:21.133Z,8.80
2022-11-05T17:40:49.609Z,8.80
2022-11-05T17:43:18.284Z,8.80
2022-11-05T17:45:49.029Z,8.80
2022-11-05T17:48:17.932Z,8.80
2022-11-05T17:50:49.570Z,8.80
2022-11-05T17:53:19.034Z,8.80
2022-11-05T17:55:47.963Z,8.80
2022-11-05T17:58:16.379Z,8.80
2022-11-05T18:00:46.701Z,8.80
2022-11-05T18:03:15.366Z,8.90
2022-11-05T18:05:44.432Z,8.90
2022-11-05T18:08:12.819Z,8.80
2022-11-05T18:10:41.495Z,8.90
2022-11-05T18:13:10.578Z,8.90
2022-11-05T18:15:41.462Z,8.80
2022-11-05T18:18:09.960Z,8.80
2022-11-05T18:20:38.607Z,8.80
2022-11-05T18:23:06.453Z,8.90
2022-11-05T18:25:34.642Z,8.90
2022-11-05T18:28:03.544Z,8.90
2022-11-05T18:30:31.670Z,8.90
2022-11-05T18:32:59.645Z,8.90
2022-11-05T18:35:28.867Z,8.90
2022-11-05T18:37:56.747Z,8.90
2022-11-05T18:40:24.892Z,8.90
2022-11-05T18:42:52.695Z,8.90
2022-11-05T18:45:29.407Z,8.90
2022-11-05T18:47:57.678Z,8.90
2022-11-05T18:50:26.494Z,9.00
2022-11-05T18:52:54.351Z,8.90
2022-11-05T18:55:23.841Z,8.90
2022-11-05T18:57:52.889Z,9.00
2022-11-05T19:00:21.292Z,9.00
2022-11-05T19:02:49.208Z,9.00
2022-11-05T19:05:32.934Z,9.00
2022-11-05T19:08:00.732Z,9.00
2022-11-05T19:10:28.885Z,9.00
2022-11-05T19:12:56.804Z,9.00
2022-11-05T19:15:24.997Z,9.00
2022-11-05T19:17:52.936Z,9.00
2022-11-05T19:20:21.264Z,9.00
2022-11-05T19:22:49.392Z,9.00
2022-11-05T19:25:17.575Z,9.00
2022-11-05T19:27:45.527Z,9.00
2022-11-05T19:30:13.675Z,9.00
2022-11-05T19:32:41.381Z,9.00
2022-11-05T19:35:09.651Z,9.10
2022-11-05T19:37:37.405Z,9.00
2022-11-05T19:40:06.519Z,9.10
2022-11-05T19:42:34.333Z,9.00
2022-11-05T19:45:23.111Z,9.00
2022-11-05T19:47:50.254Z,9.10
2022-11-05T19:50:18.355Z,9.10
2022-11-05T19:52:46.081Z,9.10
2022-11-05T19:55:14.285Z,9.10
2022-11-05T19:57:42.059Z,9.10
2022-11-05T20:00:10.747Z,9.10
2022-11-05T20:02:38.507Z,9.10
2022-11-05T20:05:06.897Z,9.10
2022-11-05T20:07:37.350Z,9.10
2022-11-05T20:10:06.862Z,9.10
2022-11-05T20:12:35.734Z,9.10
2022-11-05T20:15:04.660Z,9.10
2022-11-05T20:17:32.425Z,9.10
2022-11-05T20:20:00.794Z,9.10
2022-11-05T20:22:28.528Z,9.10
2022-11-05T20:24:56.534Z,9.10
2022-11-05T20:27:24.223Z,9.10
2022-11-05T20:29:52.375Z,9.10
2022-11-05T20:32:20.337Z,9.10
2022-11-05T20:34:48.354Z,9.10
2022-11-05T20:37:16.020Z,9.10
2022-11-05T20:39:44.193Z,9.10
2022-11-05T20:42:12.306Z,9.10
2022-11-05T20:44:40.395Z,9.10
2022-11-05T20:47:08.291Z,9.10
2022-11-05T20:49:36.370Z,9.10
2022-11-05T20:52:04.083Z,9.10
2022-11-05T20:54:32.382Z,9.10
2022-11-05T20:57:00.162Z,9.10
2022-11-05T20:59:28.526Z,9.10
2022-11-05T21:01:56.491Z,9.10
2022-11-05T21:04:25.001Z,9.10
2022-11-05T21:06:53.533Z,9.10
2022-11-05T21:09:21.838Z,9.10
2022-11-05T21:12:08.263Z,9.10
2022-11-05T21:14:40.013Z,9.10
2022-11-05T21:17:09.926Z,9.10
2022-11-05T21:19:38.851Z,9.10
2022-11-05T21:22:07.472Z,9.10
2022-11-05T21:24:36.483Z,9.10
2022-11-05T21:27:04.343Z,9.10
2022-11-05T21:29:32.746Z,9.10
2022-11-05T21:32:00.474Z,9.10
2022-11-05T21:34:28.659Z,9.10
2022-11-05T21:36:56.429Z,9.10
2022-11-05T21:39:24.554Z,9.10
2022-11-05T21:41:52.367Z,9.10
2022-11-05T21:44:20.484Z,9.10
2022-11-05T21:46:48.248Z,9.10
2022-11-05T21:49:16.668Z,9.10
2022-11-05T21:52:03.721Z,9.10
2022-11-05T21:54:50.974Z,9.20
2022-11-05T21:57:37.189Z,9.10
2022-11-05T22:00:08.262Z,9.20
2022-11-05T22:02:37.008Z,9.20
2022-11-05T22:05:06.040Z,9.10
2022-11-05T22:07:37.224Z,9.10
2022-11-05T22:10:15.627Z,9.10
2022-11-05T22:12:44.883Z,9.10
2022-11-05T22:15:14.275Z,9.10
2022-11-05T22:17:46.656Z,9.10
2022-11-05T22:20:16.074Z,9.10
2022-11-05T22:22:44.213Z,9.10
2022-11-05T22:25:13.728Z,9.10
2022-11-05T22:27:42.025Z,9.10
2022-11-05T22:30:10.852Z,9.10
2022-11-05T22:32:39.185Z,9.10
2022-11-05T22:35:08.036Z,9.20
2022-11-05T22:37:35.691Z,9.20
2022-11-05T22:40:04.320Z,9.20
2022-11-05T22:42:32.073Z,9.20
2022-11-05T22:45:00.197Z,9.20
2022-11-05T22:47:27.912Z,9.20
2022-11-05T22:49:55.955Z,9.20
2022-11-05T22:52:23.646Z,9.20
2022-11-05T22:54:52.065Z,9.20
2022-11-05T22:57:20.010Z,9.20
2022-11-05T22:59:48.188Z,9.20
2022-11-05T23:02:16.084Z,9.20
2022-11-05T23:04:44.500Z,9.20
2022-11-05T23:07:30.912Z,9.20
2022-11-05T23:10:17.797Z,9.20
2022-11-05T23:12:45.513Z,9.20
2022-11-05T23:15:33.848Z,9.20
2022-11-05T23:18:19.849Z,9.10
2022-11-05T23:21:06.687Z,9.10
2022-11-05T23:23:52.884Z,9.20
2022-11-05T23:26:39.314Z,9.10
2022-11-05T23:29:07.019Z,9.10
2022-11-05T23:31:54.208Z,9.20
2022-11-05T23:34:22.028Z,9.10
2022-11-05T23:37:08.884Z,9.10
2022-11-05T23:39:41.407Z,9.20
2022-11-05T23:42:30.200Z,9.20
2022-11-05T23:45:19.581Z,9.10
2022-11-05T23:48:06.494Z,9.10
2022-11-05T23:50:39.480Z,9.10
2022-11-05T23:53:08.519Z,9.10
2022-11-05T23:55:36.553Z,9.10
2022-11-05T23:58:05.031Z,9.10
